sensor_id;sensor_type;location;lat;lon;timestamp;P1;durP1;ratioP1;P2;durP2;ratioP2
2338;SDS011;1180;51.438;6.978;2023-03-09T00:02:17;14.50;;;10.67;;
2338;SDS011;1180;51.438;6.978;2023-03-09T00:04:43;10.87;;;9.13;;
2338;SDS011;1180;51.438;6.978;2023-03-09T00:07:08;13.80;;;10.53;;
2338;SDS011;1180;51.438;6.978;2023-03-09T00:09:33;14.13;;;10.63;;
2338;SDS011;1180;51.438;6.978;2023-03-09T00:11:59;12.67;;;9.83;;
2338;SDS011;1180;51.438;6.978;2023-03-09T00:14:24;16.60;;;12.23;;
2338;SDS011;1180;51.438;6.978;2023-03-09T00:16:50;13.10;;;10.07;;
2338;SDS011;1180;51.438;6.978;2023-03-09T00:19:16;17.57;;;12.90;;
2338;SDS011;1180;51.438;6.978;2023-03-09T00:21:51;16.60;;;12.70;;
2338;SDS011;1180;51.438;6.978;2023-03-09T00:24:19;18.15;;;13.20;;
2338;SDS011;1180;51.438;6.978;2023-03-09T00:26:59;16.13;;;13.00;;
2338;SDS011;1180;51.438;6.978;2023-03-09T00:29:26;15.30;;;12.30;;
2338;SDS011;1180;51.438;6.978;2023-03-09T00:31:55;18.15;;;12.07;;
2338;SDS011;1180;51.438;6.978;2023-03-09T00:34:21;14.38;;;12.02;;
2338;SDS011;1180;51.438;6.978;2023-03-09T00:36:47;20.95;;;15.13;;
2338;SDS011;1180;51.438;6.978;2023-03-09T00:39:14;17.30;;;13.40;;
2338;SDS011;1180;51.438;6.978;2023-03-09T00:41:40;16.20;;;13.32;;
2338;SDS011;1180;51.438;6.978;2023-03-09T00:44:06;15.63;;;12.00;;
2338;SDS011;1180;51.438;6.978;2023-03-09T00:46:32;16.80;;;12.67;;
2338;SDS011;1180;51.438;6.978;2023-03-09T00:48:58;15.50;;;12.40;;
2338;SDS011;1180;51.438;6.978;2023-03-09T00:51:24;15.60;;;12.03;;
2338;SDS011;1180;51.438;6.978;2023-03-09T00:53:50;18.50;;;13.98;;
2338;SDS011;1180;51.438;6.978;2023-03-09T00:56:17;17.17;;;13.33;;
2338;SDS011;1180;51.438;6.978;2023-03-09T00:58:44;18.42;;;14.52;;
2338;SDS011;1180;51.438;6.978;2023-03-09T01:01:10;20.13;;;14.60;;
2338;SDS011;1180;51.438;6.978;2023-03-09T01:03:37;16.42;;;13.40;;
2338;SDS011;1180;51.438;6.978;2023-03-09T01:06:02;20.43;;;16.20;;
2338;SDS011;1180;51.438;6.978;2023-03-09T01:08:29;21.30;;;15.23;;
2338;SDS011;1180;51.438;6.978;2023-03-09T01:10:54;20.27;;;14.80;;
2338;SDS011;1180;51.438;6.978;2023-03-09T01:13:19;19.70;;;14.17;;
2338;SDS011;1180;51.438;6.978;2023-03-09T01:15:45;32.27;;;20.50;;
2338;SDS011;1180;51.438;6.978;2023-03-09T01:18:10;32.13;;;19.37;;
2338;SDS011;1180;51.438;6.978;2023-03-09T01:20:37;24.77;;;16.17;;
2338;SDS011;1180;51.438;6.978;2023-03-09T01:23:02;27.50;;;18.43;;
2338;SDS011;1180;51.438;6.978;2023-03-09T01:25:28;25.10;;;18.40;;
2338;SDS011;1180;51.438;6.978;2023-03-09T01:27:54;29.57;;;17.63;;
2338;SDS011;1180;51.438;6.978;2023-03-09T01:30:19;26.93;;;18.63;;
2338;SDS011;1180;51.438;6.978;2023-03-09T01:32:45;25.30;;;17.03;;
2338;SDS011;1180;51.438;6.978;2023-03-09T01:35:10;28.33;;;17.00;;
2338;SDS011;1180;51.438;6.978;2023-03-09T01:37:36;35.40;;;21.70;;
2338;SDS011;1180;51.438;6.978;2023-03-09T01:40:02;36.00;;;19.58;;
2338;SDS011;1180;51.438;6.978;2023-03-09T01:42:31;37.25;;;21.75;;
2338;SDS011;1180;51.438;6.978;2023-03-09T01:47:44;32.85;;;21.05;;
2338;SDS011;1180;51.438;6.978;2023-03-09T01:50:10;37.95;;;22.65;;
2338;SDS011;1180;51.438;6.978;2023-03-09T01:52:38;35.53;;;22.10;;
2338;SDS011;1180;51.438;6.978;2023-03-09T01:55:11;34.47;;;22.15;;
2338;SDS011;1180;51.438;6.978;2023-03-09T01:57:45;37.58;;;23.08;;
2338;SDS011;1180;51.438;6.978;2023-03-09T02:00:15;37.80;;;22.80;;
2338;SDS011;1180;51.438;6.978;2023-03-09T02:02:44;34.30;;;20.92;;
2338;SDS011;1180;51.438;6.978;2023-03-09T02:05:21;39.78;;;23.48;;
2338;SDS011;1180;51.438;6.978;2023-03-09T02:07:58;38.50;;;22.98;;
2338;SDS011;1180;51.438;6.978;2023-03-09T02:10:35;37.85;;;22.65;;
2338;SDS011;1180;51.438;6.978;2023-03-09T02:13:04;40.20;;;22.08;;
2338;SDS011;1180;51.438;6.978;2023-03-09T02:15:32;34.53;;;22.00;;
2338;SDS011;1180;51.438;6.978;2023-03-09T02:17:58;35.90;;;22.33;;
2338;SDS011;1180;51.438;6.978;2023-03-09T02:20:28;37.20;;;21.93;;
2338;SDS011;1180;51.438;6.978;2023-03-09T02:23:02;40.60;;;22.73;;
2338;SDS011;1180;51.438;6.978;2023-03-09T02:25:34;34.63;;;20.55;;
2338;SDS011;1180;51.438;6.978;2023-03-09T02:28:06;38.13;;;22.27;;
2338;SDS011;1180;51.438;6.978;2023-03-09T02:30:33;28.67;;;19.38;;
2338;SDS011;1180;51.438;6.978;2023-03-09T02:33:03;29.50;;;19.52;;
2338;SDS011;1180;51.438;6.978;2023-03-09T02:35:30;29.55;;;20.75;;
2338;SDS011;1180;51.438;6.978;2023-03-09T02:37:55;31.50;;;19.40;;
2338;SDS011;1180;51.438;6.978;2023-03-09T02:42:53;26.67;;;18.70;;
2338;SDS011;1180;51.438;6.978;2023-03-09T02:45:19;28.20;;;17.90;;
2338;SDS011;1180;51.438;6.978;2023-03-09T02:47:46;26.73;;;18.33;;
2338;SDS011;1180;51.438;6.978;2023-03-09T02:50:13;27.73;;;19.77;;
2338;SDS011;1180;51.438;6.978;2023-03-09T02:52:38;27.08;;;19.55;;
2338;SDS011;1180;51.438;6.978;2023-03-09T02:55:04;26.37;;;19.03;;
2338;SDS011;1180;51.438;6.978;2023-03-09T02:57:31;30.63;;;20.25;;
2338;SDS011;1180;51.438;6.978;2023-03-09T02:59:57;28.98;;;19.08;;
2338;SDS011;1180;51.438;6.978;2023-03-09T03:02:22;29.60;;;17.73;;
2338;SDS011;1180;51.438;6.978;2023-03-09T03:04:48;26.27;;;19.20;;
2338;SDS011;1180;51.438;6.978;2023-03-09T03:07:13;29.50;;;19.73;;
2338;SDS011;1180;51.438;6.978;2023-03-09T03:09:39;27.60;;;19.43;;
2338;SDS011;1180;51.438;6.978;2023-03-09T03:12:04;29.97;;;18.10;;
2338;SDS011;1180;51.438;6.978;2023-03-09T03:14:30;24.80;;;17.30;;
2338;SDS011;1180;51.438;6.978;2023-03-09T03:16:56;24.50;;;16.57;;
2338;SDS011;1180;51.438;6.978;2023-03-09T03:19:21;25.73;;;17.43;;
2338;SDS011;1180;51.438;6.978;2023-03-09T03:21:47;25.93;;;17.60;;
2338;SDS011;1180;51.438;6.978;2023-03-09T03:24:13;30.48;;;19.13;;
2338;SDS011;1180;51.438;6.978;2023-03-09T03:26:40;25.20;;;16.67;;
2338;SDS011;1180;51.438;6.978;2023-03-09T03:29:05;24.33;;;17.50;;
2338;SDS011;1180;51.438;6.978;2023-03-09T03:31:31;25.63;;;17.03;;
2338;SDS011;1180;51.438;6.978;2023-03-09T03:33:56;23.10;;;15.80;;
2338;SDS011;1180;51.438;6.978;2023-03-09T03:36:21;21.57;;;15.43;;
2338;SDS011;1180;51.438;6.978;2023-03-09T03:38:47;26.97;;;17.80;;
2338;SDS011;1180;51.438;6.978;2023-03-09T03:41:12;25.67;;;16.23;;
2338;SDS011;1180;51.438;6.978;2023-03-09T03:43:38;28.00;;;17.40;;
2338;SDS011;1180;51.438;6.978;2023-03-09T03:46:03;24.33;;;16.37;;
2338;SDS011;1180;51.438;6.978;2023-03-09T03:48:28;28.40;;;19.50;;
2338;SDS011;1180;51.438;6.978;2023-03-09T03:50:54;23.90;;;17.30;;
2338;SDS011;1180;51.438;6.978;2023-03-09T03:53:19;25.57;;;17.77;;
2338;SDS011;1180;51.438;6.978;2023-03-09T03:55:44;32.20;;;21.10;;
2338;SDS011;1180;51.438;6.978;2023-03-09T03:58:10;32.13;;;20.00;;
2338;SDS011;1180;51.438;6.978;2023-03-09T04:00:35;28.60;;;19.30;;
2338;SDS011;1180;51.438;6.978;2023-03-09T04:03:00;28.47;;;18.90;;
2338;SDS011;1180;51.438;6.978;2023-03-09T04:05:26;29.17;;;18.83;;
2338;SDS011;1180;51.438;6.978;2023-03-09T04:07:51;24.47;;;17.00;;
2338;SDS011;1180;51.438;6.978;2023-03-09T04:10:17;26.00;;;18.83;;
2338;SDS011;1180;51.438;6.978;2023-03-09T04:12:42;25.97;;;16.20;;
2338;SDS011;1180;51.438;6.978;2023-03-09T04:15:08;24.67;;;16.50;;
2338;SDS011;1180;51.438;6.978;2023-03-09T04:17:34;31.23;;;19.40;;
2338;SDS011;1180;51.438;6.978;2023-03-09T04:19:59;23.33;;;17.27;;
2338;SDS011;1180;51.438;6.978;2023-03-09T04:22:25;28.97;;;19.97;;
2338;SDS011;1180;51.438;6.978;2023-03-09T04:24:50;31.90;;;18.80;;
2338;SDS011;1180;51.438;6.978;2023-03-09T04:27:16;30.00;;;18.70;;
2338;SDS011;1180;51.438;6.978;2023-03-09T04:29:41;31.57;;;21.00;;
2338;SDS011;1180;51.438;6.978;2023-03-09T04:32:07;27.80;;;16.87;;
2338;SDS011;1180;51.438;6.978;2023-03-09T04:34:33;30.17;;;19.87;;
2338;SDS011;1180;51.438;6.978;2023-03-09T04:36:58;30.90;;;19.80;;
2338;SDS011;1180;51.438;6.978;2023-03-09T04:39:24;29.97;;;19.70;;
2338;SDS011;1180;51.438;6.978;2023-03-09T04:41:50;34.43;;;20.37;;
2338;SDS011;1180;51.438;6.978;2023-03-09T04:44:16;30.70;;;19.30;;
2338;SDS011;1180;51.438;6.978;2023-03-09T04:46:41;29.43;;;19.60;;
2338;SDS011;1180;51.438;6.978;2023-03-09T04:49:07;31.20;;;20.83;;
2338;SDS011;1180;51.438;6.978;2023-03-09T04:51:33;39.47;;;23.13;;
2338;SDS011;1180;51.438;6.978;2023-03-09T04:53:59;28.43;;;19.47;;
2338;SDS011;1180;51.438;6.978;2023-03-09T04:56:24;33.27;;;20.80;;
2338;SDS011;1180;51.438;6.978;2023-03-09T04:58:50;33.70;;;22.10;;
2338;SDS011;1180;51.438;6.978;2023-03-09T05:01:16;33.37;;;21.30;;
2338;SDS011;1180;51.438;6.978;2023-03-09T05:03:43;33.83;;;22.60;;
2338;SDS011;1180;51.438;6.978;2023-03-09T05:06:08;33.50;;;20.83;;
2338;SDS011;1180;51.438;6.978;2023-03-09T05:08:34;43.97;;;24.37;;
2338;SDS011;1180;51.438;6.978;2023-03-09T05:11:00;41.30;;;23.70;;
2338;SDS011;1180;51.438;6.978;2023-03-09T05:13:25;42.87;;;24.73;;
2338;SDS011;1180;51.438;6.978;2023-03-09T05:15:51;45.70;;;24.63;;
2338;SDS011;1180;51.438;6.978;2023-03-09T05:18:17;43.33;;;24.63;;
2338;SDS011;1180;51.438;6.978;2023-03-09T05:20:43;43.70;;;24.30;;
2338;SDS011;1180;51.438;6.978;2023-03-09T05:23:08;37.23;;;23.00;;
2338;SDS011;1180;51.438;6.978;2023-03-09T05:25:34;34.20;;;20.63;;
2338;SDS011;1180;51.438;6.978;2023-03-09T05:28:01;36.90;;;24.73;;
2338;SDS011;1180;51.438;6.978;2023-03-09T05:30:30;41.95;;;24.00;;
2338;SDS011;1180;51.438;6.978;2023-03-09T05:32:56;42.03;;;22.75;;
2338;SDS011;1180;51.438;6.978;2023-03-09T05:35:22;39.40;;;22.43;;
2338;SDS011;1180;51.438;6.978;2023-03-09T05:37:47;41.23;;;23.97;;
2338;SDS011;1180;51.438;6.978;2023-03-09T05:40:13;45.00;;;25.43;;
2338;SDS011;1180;51.438;6.978;2023-03-09T05:42:42;47.33;;;25.13;;
2338;SDS011;1180;51.438;6.978;2023-03-09T05:45:08;50.03;;;26.67;;
2338;SDS011;1180;51.438;6.978;2023-03-09T05:47:34;49.38;;;25.83;;
2338;SDS011;1180;51.438;6.978;2023-03-09T05:50:00;42.17;;;24.52;;
2338;SDS011;1180;51.438;6.978;2023-03-09T05:52:26;43.00;;;23.20;;
2338;SDS011;1180;51.438;6.978;2023-03-09T05:54:52;43.47;;;25.83;;
2338;SDS011;1180;51.438;6.978;2023-03-09T05:57:17;39.43;;;23.60;;
2338;SDS011;1180;51.438;6.978;2023-03-09T05:59:43;56.03;;;30.60;;
2338;SDS011;1180;51.438;6.978;2023-03-09T06:02:09;40.20;;;24.40;;
2338;SDS011;1180;51.438;6.978;2023-03-09T06:04:34;41.83;;;24.07;;
2338;SDS011;1180;51.438;6.978;2023-03-09T06:07:00;55.00;;;29.40;;
2338;SDS011;1180;51.438;6.978;2023-03-09T06:09:26;46.47;;;26.70;;
2338;SDS011;1180;51.438;6.978;2023-03-09T06:11:52;44.27;;;24.80;;
2338;SDS011;1180;51.438;6.978;2023-03-09T06:14:18;44.00;;;24.23;;
2338;SDS011;1180;51.438;6.978;2023-03-09T06:16:44;50.07;;;26.50;;
2338;SDS011;1180;51.438;6.978;2023-03-09T06:19:11;39.73;;;23.43;;
2338;SDS011;1180;51.438;6.978;2023-03-09T06:21:39;38.40;;;23.88;;
2338;SDS011;1180;51.438;6.978;2023-03-09T06:24:05;48.00;;;26.80;;
2338;SDS011;1180;51.438;6.978;2023-03-09T06:26:31;44.30;;;24.90;;
2338;SDS011;1180;51.438;6.978;2023-03-09T06:28:56;40.30;;;22.63;;
2338;SDS011;1180;51.438;6.978;2023-03-09T06:31:21;45.73;;;25.40;;
2338;SDS011;1180;51.438;6.978;2023-03-09T06:33:47;41.33;;;24.50;;
2338;SDS011;1180;51.438;6.978;2023-03-09T06:36:14;37.10;;;22.10;;
2338;SDS011;1180;51.438;6.978;2023-03-09T06:38:41;36.47;;;21.75;;
2338;SDS011;1180;51.438;6.978;2023-03-09T06:41:07;41.33;;;22.90;;
2338;SDS011;1180;51.438;6.978;2023-03-09T06:43:33;44.07;;;24.57;;
2338;SDS011;1180;51.438;6.978;2023-03-09T06:45:59;44.72;;;24.10;;
2338;SDS011;1180;51.438;6.978;2023-03-09T06:48:25;41.20;;;24.20;;
2338;SDS011;1180;51.438;6.978;2023-03-09T06:50:50;36.47;;;22.40;;
2338;SDS011;1180;51.438;6.978;2023-03-09T06:53:16;38.40;;;23.33;;
2338;SDS011;1180;51.438;6.978;2023-03-09T06:55:41;43.83;;;24.23;;
2338;SDS011;1180;51.438;6.978;2023-03-09T06:58:07;37.70;;;23.27;;
2338;SDS011;1180;51.438;6.978;2023-03-09T07:00:32;39.27;;;20.80;;
2338;SDS011;1180;51.438;6.978;2023-03-09T07:03:02;31.95;;;20.00;;
2338;SDS011;1180;51.438;6.978;2023-03-09T07:05:28;31.93;;;20.40;;
2338;SDS011;1180;51.438;6.978;2023-03-09T07:07:54;34.00;;;19.50;;
2338;SDS011;1180;51.438;6.978;2023-03-09T07:10:19;32.37;;;19.30;;
2338;SDS011;1180;51.438;6.978;2023-03-09T07:12:46;35.83;;;21.20;;
2338;SDS011;1180;51.438;6.978;2023-03-09T07:15:13;39.33;;;20.80;;
2338;SDS011;1180;51.438;6.978;2023-03-09T07:17:40;35.75;;;21.23;;
2338;SDS011;1180;51.438;6.978;2023-03-09T07:20:08;32.00;;;18.85;;
2338;SDS011;1180;51.438;6.978;2023-03-09T07:22:34;34.33;;;21.55;;
2338;SDS011;1180;51.438;6.978;2023-03-09T07:25:00;39.80;;;22.43;;
2338;SDS011;1180;51.438;6.978;2023-03-09T07:27:28;32.15;;;21.17;;
2338;SDS011;1180;51.438;6.978;2023-03-09T07:29:55;29.50;;;17.77;;
2338;SDS011;1180;51.438;6.978;2023-03-09T07:32:20;36.63;;;20.27;;
2338;SDS011;1180;51.438;6.978;2023-03-09T07:34:46;37.97;;;21.60;;
2338;SDS011;1180;51.438;6.978;2023-03-09T07:37:11;33.50;;;19.57;;
2338;SDS011;1180;51.438;6.978;2023-03-09T07:39:37;37.20;;;19.97;;
2338;SDS011;1180;51.438;6.978;2023-03-09T07:42:02;37.80;;;22.30;;
2338;SDS011;1180;51.438;6.978;2023-03-09T07:44:28;33.80;;;19.90;;
2338;SDS011;1180;51.438;6.978;2023-03-09T07:46:53;36.30;;;21.20;;
2338;SDS011;1180;51.438;6.978;2023-03-09T07:49:19;36.57;;;21.40;;
2338;SDS011;1180;51.438;6.978;2023-03-09T07:51:44;33.00;;;20.80;;
2338;SDS011;1180;51.438;6.978;2023-03-09T07:54:10;38.53;;;22.10;;
2338;SDS011;1180;51.438;6.978;2023-03-09T07:56:36;38.33;;;22.90;;
2338;SDS011;1180;51.438;6.978;2023-03-09T07:59:01;39.50;;;21.43;;
2338;SDS011;1180;51.438;6.978;2023-03-09T08:01:26;33.80;;;21.87;;
2338;SDS011;1180;51.438;6.978;2023-03-09T08:03:52;35.07;;;19.80;;
2338;SDS011;1180;51.438;6.978;2023-03-09T08:06:18;33.23;;;20.80;;
2338;SDS011;1180;51.438;6.978;2023-03-09T08:08:44;39.92;;;23.55;;
2338;SDS011;1180;51.438;6.978;2023-03-09T08:11:11;41.88;;;23.08;;
2338;SDS011;1180;51.438;6.978;2023-03-09T08:13:37;45.67;;;24.80;;
2338;SDS011;1180;51.438;6.978;2023-03-09T08:16:04;43.77;;;22.70;;
2338;SDS011;1180;51.438;6.978;2023-03-09T08:18:31;44.08;;;24.40;;
2338;SDS011;1180;51.438;6.978;2023-03-09T08:21:07;48.20;;;26.80;;
2338;SDS011;1180;51.438;6.978;2023-03-09T08:23:38;47.03;;;25.77;;
2338;SDS011;1180;51.438;6.978;2023-03-09T08:26:06;48.83;;;26.88;;
2338;SDS011;1180;51.438;6.978;2023-03-09T08:28:39;49.13;;;25.58;;
2338;SDS011;1180;51.438;6.978;2023-03-09T08:31:05;44.97;;;24.13;;
2338;SDS011;1180;51.438;6.978;2023-03-09T08:33:31;46.95;;;25.63;;
2338;SDS011;1180;51.438;6.978;2023-03-09T08:35:57;50.40;;;29.10;;
2338;SDS011;1180;51.438;6.978;2023-03-09T08:38:23;46.63;;;26.60;;
2338;SDS011;1180;51.438;6.978;2023-03-09T08:40:48;52.40;;;27.23;;
2338;SDS011;1180;51.438;6.978;2023-03-09T08:43:14;48.00;;;28.73;;
2338;SDS011;1180;51.438;6.978;2023-03-09T08:45:39;49.27;;;28.80;;
2338;SDS011;1180;51.438;6.978;2023-03-09T08:48:05;53.70;;;28.27;;
2338;SDS011;1180;51.438;6.978;2023-03-09T08:50:30;60.87;;;27.77;;
2338;SDS011;1180;51.438;6.978;2023-03-09T08:52:58;53.38;;;29.75;;
2338;SDS011;1180;51.438;6.978;2023-03-09T08:55:24;59.00;;;27.97;;
2338;SDS011;1180;51.438;6.978;2023-03-09T08:57:49;51.70;;;27.00;;
2338;SDS011;1180;51.438;6.978;2023-03-09T09:00:16;50.63;;;27.85;;
2338;SDS011;1180;51.438;6.978;2023-03-09T09:02:43;51.17;;;29.20;;
2338;SDS011;1180;51.438;6.978;2023-03-09T09:05:08;48.93;;;25.53;;
2338;SDS011;1180;51.438;6.978;2023-03-09T09:07:34;44.93;;;25.00;;
2338;SDS011;1180;51.438;6.978;2023-03-09T09:10:00;47.07;;;26.00;;
2338;SDS011;1180;51.438;6.978;2023-03-09T09:12:25;51.10;;;25.70;;
2338;SDS011;1180;51.438;6.978;2023-03-09T09:14:53;44.03;;;24.45;;
2338;SDS011;1180;51.438;6.978;2023-03-09T09:17:19;46.08;;;24.77;;
2338;SDS011;1180;51.438;6.978;2023-03-09T09:19:44;44.93;;;25.80;;
2338;SDS011;1180;51.438;6.978;2023-03-09T09:22:09;41.40;;;25.00;;
2338;SDS011;1180;51.438;6.978;2023-03-09T09:24:36;38.80;;;21.53;;
2338;SDS011;1180;51.438;6.978;2023-03-09T09:27:04;46.57;;;25.20;;
2338;SDS011;1180;51.438;6.978;2023-03-09T09:29:31;44.27;;;23.83;;
2338;SDS011;1180;51.438;6.978;2023-03-09T09:31:59;38.97;;;22.65;;
2338;SDS011;1180;51.438;6.978;2023-03-09T09:34:28;46.53;;;23.93;;
2338;SDS011;1180;51.438;6.978;2023-03-09T09:36:57;42.40;;;24.57;;
2338;SDS011;1180;51.438;6.978;2023-03-09T09:39:26;47.70;;;26.70;;
2338;SDS011;1180;51.438;6.978;2023-03-09T09:41:54;43.20;;;24.58;;
2338;SDS011;1180;51.438;6.978;2023-03-09T09:44:26;46.30;;;25.20;;
2338;SDS011;1180;51.438;6.978;2023-03-09T09:46:56;44.53;;;24.13;;
2338;SDS011;1180;51.438;6.978;2023-03-09T09:49:26;50.03;;;27.02;;
2338;SDS011;1180;51.438;6.978;2023-03-09T09:57:13;47.47;;;25.67;;
2338;SDS011;1180;51.438;6.978;2023-03-09T10:05:53;38.77;;;22.90;;
2338;SDS011;1180;51.438;6.978;2023-03-09T10:07:49;41.53;;;25.60;;
2338;SDS011;1180;51.438;6.978;2023-03-09T10:10:17;47.30;;;27.70;;
2338;SDS011;1180;51.438;6.978;2023-03-09T10:12:46;41.73;;;23.47;;
2338;SDS011;1180;51.438;6.978;2023-03-09T10:15:14;49.07;;;25.43;;
2338;SDS011;1180;51.438;6.978;2023-03-09T10:17:52;46.47;;;24.97;;
2338;SDS011;1180;51.438;6.978;2023-03-09T10:20:22;45.50;;;24.50;;
2338;SDS011;1180;51.438;6.978;2023-03-09T10:22:52;48.03;;;25.15;;
2338;SDS011;1180;51.438;6.978;2023-03-09T10:25:20;47.67;;;24.57;;
2338;SDS011;1180;51.438;6.978;2023-03-09T10:27:54;50.70;;;25.60;;
2338;SDS011;1180;51.438;6.978;2023-03-09T10:30:41;56.33;;;27.50;;
2338;SDS011;1180;51.438;6.978;2023-03-09T10:33:15;52.00;;;27.23;;
2338;SDS011;1180;51.438;6.978;2023-03-09T10:38:28;41.63;;;24.10;;
2338;SDS011;1180;51.438;6.978;2023-03-09T10:40:55;49.77;;;25.20;;
2338;SDS011;1180;51.438;6.978;2023-03-09T10:43:32;47.97;;;25.83;;
2338;SDS011;1180;51.438;6.978;2023-03-09T10:46:15;45.57;;;25.73;;
2338;SDS011;1180;51.438;6.978;2023-03-09T10:48:41;47.23;;;24.30;;
2338;SDS011;1180;51.438;6.978;2023-03-09T10:53:50;45.23;;;25.10;;
2338;SDS011;1180;51.438;6.978;2023-03-09T10:56:24;53.50;;;29.20;;
2338;SDS011;1180;51.438;6.978;2023-03-09T11:01:28;44.47;;;24.77;;
2338;SDS011;1180;51.438;6.978;2023-03-09T11:03:54;49.50;;;24.90;;
2338;SDS011;1180;51.438;6.978;2023-03-09T11:11:38;38.67;;;22.90;;
2338;SDS011;1180;51.438;6.978;2023-03-09T11:14:15;43.73;;;22.90;;
2338;SDS011;1180;51.438;6.978;2023-03-09T11:16:49;41.85;;;23.92;;
2338;SDS011;1180;51.438;6.978;2023-03-09T11:19:18;41.17;;;23.77;;
2338;SDS011;1180;51.438;6.978;2023-03-09T11:21:51;45.03;;;22.70;;
2338;SDS011;1180;51.438;6.978;2023-03-09T11:24:27;42.50;;;25.23;;
2338;SDS011;1180;51.438;6.978;2023-03-09T11:29:36;42.30;;;23.50;;
2338;SDS011;1180;51.438;6.978;2023-03-09T11:32:07;48.63;;;25.43;;
2338;SDS011;1180;51.438;6.978;2023-03-09T11:34:35;44.43;;;23.77;;
2338;SDS011;1180;51.438;6.978;2023-03-09T11:39:54;52.63;;;26.60;;
2338;SDS011;1180;51.438;6.978;2023-03-09T11:42:30;53.13;;;27.43;;
2338;SDS011;1180;51.438;6.978;2023-03-09T11:44:59;51.30;;;28.43;;
2338;SDS011;1180;51.438;6.978;2023-03-09T11:49:59;48.27;;;26.97;;
2338;SDS011;1180;51.438;6.978;2023-03-09T11:52:38;51.93;;;26.20;;
2338;SDS011;1180;51.438;6.978;2023-03-09T11:55:16;48.47;;;25.53;;
2338;SDS011;1180;51.438;6.978;2023-03-09T11:57:48;47.13;;;26.50;;
2338;SDS011;1180;51.438;6.978;2023-03-09T12:00:17;48.33;;;27.33;;
2338;SDS011;1180;51.438;6.978;2023-03-09T12:05:53;42.90;;;25.03;;
2338;SDS011;1180;51.438;6.978;2023-03-09T12:11:10;46.07;;;26.93;;
2338;SDS011;1180;51.438;6.978;2023-03-09T12:13:56;47.57;;;25.90;;
2338;SDS011;1180;51.438;6.978;2023-03-09T12:16:44;42.27;;;24.07;;
2338;SDS011;1180;51.438;6.978;2023-03-09T12:19:15;40.80;;;25.60;;
2338;SDS011;1180;51.438;6.978;2023-03-09T12:21:44;42.77;;;23.07;;
2338;SDS011;1180;51.438;6.978;2023-03-09T12:24:23;48.27;;;26.87;;
2338;SDS011;1180;51.438;6.978;2023-03-09T12:29:34;44.33;;;24.10;;
2338;SDS011;1180;51.438;6.978;2023-03-09T12:32:48;44.70;;;23.60;;
2338;SDS011;1180;51.438;6.978;2023-03-09T12:34:58;44.90;;;23.50;;
2338;SDS011;1180;51.438;6.978;2023-03-09T12:40:15;47.33;;;25.80;;
2338;SDS011;1180;51.438;6.978;2023-03-09T12:42:52;42.80;;;23.93;;
2338;SDS011;1180;51.438;6.978;2023-03-09T12:45:29;40.63;;;25.27;;
2338;SDS011;1180;51.438;6.978;2023-03-09T13:03:37;46.33;;;26.53;;
2338;SDS011;1180;51.438;6.978;2023-03-09T13:06:04;46.17;;;25.03;;
2338;SDS011;1180;51.438;6.978;2023-03-09T13:08:48;43.37;;;25.13;;
2338;SDS011;1180;51.438;6.978;2023-03-09T13:13:52;37.53;;;21.30;;
2338;SDS011;1180;51.438;6.978;2023-03-09T13:21:42;36.37;;;21.20;;
2338;SDS011;1180;51.438;6.978;2023-03-09T13:24:16;31.00;;;20.03;;
2338;SDS011;1180;51.438;6.978;2023-03-09T13:26:43;37.53;;;20.70;;
2338;SDS011;1180;51.438;6.978;2023-03-09T13:29:14;37.83;;;22.10;;
2338;SDS011;1180;51.438;6.978;2023-03-09T13:31:41;34.20;;;20.23;;
2338;SDS011;1180;51.438;6.978;2023-03-09T13:34:16;31.87;;;20.27;;
2338;SDS011;1180;51.438;6.978;2023-03-09T13:36:47;36.43;;;19.77;;
2338;SDS011;1180;51.438;6.978;2023-03-09T13:39:16;33.57;;;20.13;;
2338;SDS011;1180;51.438;6.978;2023-03-09T13:41:43;33.77;;;20.10;;
2338;SDS011;1180;51.438;6.978;2023-03-09T13:44:17;30.40;;;19.33;;
2338;SDS011;1180;51.438;6.978;2023-03-09T13:46:44;27.83;;;17.47;;
2338;SDS011;1180;51.438;6.978;2023-03-09T13:51:58;33.37;;;20.73;;
2338;SDS011;1180;51.438;6.978;2023-03-09T13:54:33;27.90;;;18.30;;
2338;SDS011;1180;51.438;6.978;2023-03-09T13:57:01;28.60;;;17.00;;
2338;SDS011;1180;51.438;6.978;2023-03-09T14:02:21;28.47;;;17.30;;
2338;SDS011;1180;51.438;6.978;2023-03-09T14:07:27;24.47;;;15.60;;
2338;SDS011;1180;51.438;6.978;2023-03-09T14:09:58;25.97;;;15.17;;
2338;SDS011;1180;51.438;6.978;2023-03-09T14:12:46;24.73;;;16.07;;
2338;SDS011;1180;51.438;6.978;2023-03-09T14:15:36;29.07;;;15.40;;
2338;SDS011;1180;51.438;6.978;2023-03-09T14:18:01;22.70;;;13.70;;
2338;SDS011;1180;51.438;6.978;2023-03-09T14:23:15;23.73;;;14.90;;
2338;SDS011;1180;51.438;6.978;2023-03-09T14:25:49;25.10;;;16.97;;
2338;SDS011;1180;51.438;6.978;2023-03-09T14:28:34;25.97;;;15.90;;
2338;SDS011;1180;51.438;6.978;2023-03-09T14:31:23;24.00;;;15.13;;
2338;SDS011;1180;51.438;6.978;2023-03-09T14:36:21;22.60;;;15.50;;
2338;SDS011;1180;51.438;6.978;2023-03-09T14:38:54;23.87;;;14.07;;
2338;SDS011;1180;51.438;6.978;2023-03-09T14:41:25;19.20;;;13.10;;
2338;SDS011;1180;51.438;6.978;2023-03-09T14:43:52;20.83;;;14.03;;
2338;SDS011;1180;51.438;6.978;2023-03-09T14:46:19;22.80;;;14.50;;
2338;SDS011;1180;51.438;6.978;2023-03-09T14:48:45;20.40;;;13.70;;
2338;SDS011;1180;51.438;6.978;2023-03-09T14:51:17;19.13;;;12.53;;
2338;SDS011;1180;51.438;6.978;2023-03-09T14:53:51;17.73;;;12.57;;
2338;SDS011;1180;51.438;6.978;2023-03-09T14:56:18;20.23;;;11.53;;
2338;SDS011;1180;51.438;6.978;2023-03-09T14:58:44;20.57;;;14.43;;
2338;SDS011;1180;51.438;6.978;2023-03-09T15:01:09;20.97;;;11.80;;
2338;SDS011;1180;51.438;6.978;2023-03-09T15:03:35;19.80;;;12.77;;
2338;SDS011;1180;51.438;6.978;2023-03-09T15:06:00;17.80;;;11.90;;
2338;SDS011;1180;51.438;6.978;2023-03-09T15:08:26;18.90;;;10.60;;
2338;SDS011;1180;51.438;6.978;2023-03-09T15:10:52;15.77;;;12.13;;
2338;SDS011;1180;51.438;6.978;2023-03-09T15:13:17;18.67;;;11.20;;
2338;SDS011;1180;51.438;6.978;2023-03-09T15:15:43;16.27;;;10.90;;
2338;SDS011;1180;51.438;6.978;2023-03-09T15:18:11;16.23;;;11.80;;
2338;SDS011;1180;51.438;6.978;2023-03-09T15:20:37;17.43;;;11.73;;
2338;SDS011;1180;51.438;6.978;2023-03-09T15:23:03;19.77;;;12.43;;
2338;SDS011;1180;51.438;6.978;2023-03-09T15:25:28;14.63;;;10.83;;
2338;SDS011;1180;51.438;6.978;2023-03-09T15:27:53;17.77;;;10.93;;
2338;SDS011;1180;51.438;6.978;2023-03-09T15:30:19;18.73;;;12.47;;
2338;SDS011;1180;51.438;6.978;2023-03-09T15:32:45;14.37;;;10.83;;
2338;SDS011;1180;51.438;6.978;2023-03-09T15:35:13;16.80;;;12.20;;
2338;SDS011;1180;51.438;6.978;2023-03-09T15:37:40;18.97;;;11.87;;
2338;SDS011;1180;51.438;6.978;2023-03-09T15:40:06;18.27;;;12.27;;
2338;SDS011;1180;51.438;6.978;2023-03-09T15:42:33;15.43;;;11.07;;
2338;SDS011;1180;51.438;6.978;2023-03-09T15:45:01;17.87;;;12.60;;
2338;SDS011;1180;51.438;6.978;2023-03-09T15:47:27;15.20;;;11.17;;
2338;SDS011;1180;51.438;6.978;2023-03-09T15:49:52;18.23;;;11.33;;
2338;SDS011;1180;51.438;6.978;2023-03-09T15:52:18;20.00;;;14.03;;
2338;SDS011;1180;51.438;6.978;2023-03-09T15:54:44;16.93;;;12.00;;
2338;SDS011;1180;51.438;6.978;2023-03-09T15:57:10;19.00;;;13.10;;
2338;SDS011;1180;51.438;6.978;2023-03-09T15:59:35;17.17;;;12.90;;
2338;SDS011;1180;51.438;6.978;2023-03-09T16:02:01;18.10;;;12.30;;
2338;SDS011;1180;51.438;6.978;2023-03-09T16:04:26;16.63;;;11.87;;
2338;SDS011;1180;51.438;6.978;2023-03-09T16:06:52;20.23;;;13.50;;
2338;SDS011;1180;51.438;6.978;2023-03-09T16:09:18;19.20;;;12.03;;
2338;SDS011;1180;51.438;6.978;2023-03-09T16:11:43;16.10;;;11.43;;
2338;SDS011;1180;51.438;6.978;2023-03-09T16:14:09;18.63;;;12.70;;
2338;SDS011;1180;51.438;6.978;2023-03-09T16:16:35;16.40;;;12.50;;
2338;SDS011;1180;51.438;6.978;2023-03-09T16:19:01;20.70;;;12.70;;